createdAt,value
2022-11-16T00:00:28.240Z,89.5
2022-11-16T00:01:45.344Z,89.3
2022-11-16T00:03:02.450Z,89.4
2022-11-16T00:04:19.554Z,89.5
2022-11-16T00:05:36.659Z,89.3
2022-11-16T00:06:52.785Z,89.4
2022-11-16T00:08:08.906Z,89.5
2022-11-16T00:09:26.011Z,89.6
2022-11-16T00:10:43.115Z,89.8
2022-11-16T00:12:00.220Z,89.6
2022-11-16T00:13:17.325Z,89.7
2022-11-16T00:14:34.430Z,89.8
2022-11-16T00:15:51.535Z,89.7
2022-11-16T00:17:08.639Z,89.8
2022-11-16T00:18:25.744Z,89.9
2022-11-16T00:19:42.849Z,89.9
2022-11-16T00:20:59.954Z,90
2022-11-16T00:22:17.058Z,89.8
2022-11-16T00:23:34.163Z,89.7
2022-11-16T00:24:50.284Z,90.1
2022-11-16T00:26:07.389Z,90.1
2022-11-16T00:27:24.494Z,90.3
2022-11-16T00:28:41.598Z,90.2
2022-11-16T00:29:57.719Z,90.2
2022-11-16T00:31:14.824Z,90.2
2022-11-16T00:32:31.929Z,89.9
2022-11-16T00:33:48.055Z,89.8
2022-11-16T00:35:04.175Z,89.7
2022-11-16T00:36:20.302Z,89.6
2022-11-16T00:37:36.422Z,89.6
2022-11-16T00:38:53.527Z,89.6
2022-11-16T00:40:10.632Z,89.6
2022-11-16T00:41:26.758Z,89.3
2022-11-16T00:42:42.879Z,89.3
2022-11-16T00:43:59.983Z,89.3
2022-11-16T00:45:17.088Z,89.4
2022-11-16T00:46:34.193Z,89.1
2022-11-16T00:47:51.298Z,89.2
2022-11-16T00:49:08.403Z,89.4
2022-11-16T00:50:25.508Z,89.5
2022-11-16T00:51:42.612Z,89.6
2022-11-16T00:52:59.717Z,89.7
2022-11-16T00:54:16.822Z,89.9
2022-11-16T00:55:33.926Z,89.8
2022-11-16T00:56:51.031Z,89.8
2022-11-16T00:58:08.136Z,89.6
2022-11-16T00:59:24.257Z,89.7
2022-11-16T01:00:41.362Z,89.9
2022-11-16T01:01:58.466Z,89.9
2022-11-16T01:03:15.571Z,89.8
2022-11-16T01:04:32.676Z,90
2022-11-16T01:05:49.780Z,90.1
2022-11-16T01:07:06.885Z,90.9
2022-11-16T01:08:23.011Z,90.9
2022-11-16T01:09:39.132Z,91.3
2022-11-16T01:10:55.258Z,91.1
2022-11-16T01:12:11.379Z,91
2022-11-16T01:13:28.484Z,90.8
2022-11-16T01:14:45.589Z,90.7
2022-11-16T01:16:02.695Z,90.6
2022-11-16T01:17:19.799Z,90.5
2022-11-16T01:18:36.904Z,90.6
2022-11-16T01:19:54.009Z,90.5
2022-11-16T01:21:11.113Z,90.4
2022-11-16T01:22:28.218Z,90.5
2022-11-16T01:23:45.323Z,90.8
2022-11-16T01:25:02.428Z,91.2
2022-11-16T01:26:19.532Z,91
2022-11-16T01:27:36.637Z,91.2
2022-11-16T01:28:52.758Z,91.1
2022-11-16T01:30:09.862Z,91.1
2022-11-16T01:31:26.967Z,90.8
2022-11-16T01:32:44.072Z,91.1
2022-11-16T01:34:01.177Z,91.1
2022-11-16T01:35:18.282Z,90.7
2022-11-16T01:36:35.386Z,90.8
2022-11-16T01:37:51.513Z,91
2022-11-16T01:39:07.633Z,90.9
2022-11-16T01:40:24.738Z,90.7
2022-11-16T01:41:41.843Z,90.7
2022-11-16T01:42:57.969Z,90.6
2022-11-16T01:44:14.090Z,90.6
2022-11-16T01:45:31.194Z,90.4
2022-11-16T01:46:48.299Z,90.4
2022-11-16T01:48:05.404Z,90.2
2022-11-16T01:49:22.509Z,90.1
2022-11-16T01:50:39.614Z,90.1
2022-11-16T01:51:56.719Z,90.2
2022-11-16T01:53:13.823Z,90.2
2022-11-16T01:54:30.928Z,90.2
2022-11-16T01:55:48.033Z,90.2
2022-11-16T01:57:05.137Z,90.3
2022-11-16T01:58:22.242Z,89.9
2022-11-16T01:59:39.347Z,90.2
2022-11-16T02:00:55.468Z,90.1
2022-11-16T02:02:12.573Z,90.3
2022-11-16T02:03:29.677Z,90.1
2022-11-16T02:04:46.782Z,89.9
2022-11-16T02:06:03.887Z,89.9
2022-11-16T02:07:20.991Z,90.2
2022-11-16T02:08:38.096Z,90.2
2022-11-16T02:09:54.222Z,90.6
2022-11-16T02:11:10.343Z,90.8
2022-11-16T02:12:27.449Z,90.9
2022-11-16T02:13:43.575Z,90.9
2022-11-16T02:14:59.696Z,90.9
2022-11-16T02:16:16.800Z,90.8
2022-11-16T02:17:33.907Z,90.6
2022-11-16T02:18:51.011Z,90.8
2022-11-16T02:20:08.116Z,91.2
2022-11-16T02:21:25.221Z,91.2
2022-11-16T02:22:42.325Z,91.2
2022-11-16T02:23:59.430Z,91.4
2022-11-16T02:25:16.535Z,91.9
2022-11-16T02:26:33.640Z,92.1
2022-11-16T02:27:50.745Z,92.1
2022-11-16T02:29:07.850Z,92.1
2022-11-16T02:30:24.954Z,92.1
2022-11-16T02:31:41.075Z,91.9
2022-11-16T02:32:58.180Z,92.1
2022-11-16T02:34:15.285Z,92
2022-11-16T02:35:32.389Z,91.9
2022-11-16T02:36:49.494Z,92
2022-11-16T02:38:06.600Z,92.3
2022-11-16T02:39:23.705Z,92.2
2022-11-16T02:40:39.831Z,92.2
2022-11-16T02:41:55.952Z,92.2
2022-11-16T02:43:12.078Z,92.1
2022-11-16T02:44:28.199Z,92.4
2022-11-16T02:45:45.303Z,92.4
2022-11-16T02:47:02.408Z,92.2
2022-11-16T02:48:19.513Z,92.3
2022-11-16T02:49:36.617Z,92.1
2022-11-16T02:50:53.722Z,92.1
2022-11-16T02:52:10.827Z,92
2022-11-16T02:53:27.932Z,92
2022-11-16T02:54:45.037Z,92
2022-11-16T02:56:02.141Z,91.8
2022-11-16T02:57:19.246Z,91.6
2022-11-16T02:58:36.351Z,91.7
2022-11-16T02:59:53.456Z,91.8
2022-11-16T03:01:09.577Z,91.8
2022-11-16T03:02:26.681Z,91.9
2022-11-16T03:03:43.786Z,92.1
2022-11-16T03:05:00.891Z,92.1
2022-11-16T03:06:17.996Z,92
2022-11-16T03:07:35.101Z,91.9
2022-11-16T03:08:52.205Z,91.6
2022-11-16T03:10:08.331Z,91.6
2022-11-16T03:11:24.452Z,91.5
2022-11-16T03:12:41.557Z,91.4
2022-11-16T03:13:58.661Z,91.5
2022-11-16T03:15:14.788Z,91.5
2022-11-16T03:16:30.908Z,91.3
2022-11-16T03:17:48.013Z,91.2
2022-11-16T03:19:05.118Z,91.1
2022-11-16T03:20:22.223Z,91.6
2022-11-16T03:21:39.328Z,91.8
2022-11-16T03:22:56.432Z,91.6
2022-11-16T03:24:13.537Z,91.6
2022-11-16T03:25:30.642Z,91.4
2022-11-16T03:26:47.747Z,91.5
2022-11-16T03:28:04.851Z,91.5
2022-11-16T03:29:21.956Z,91.3
2022-11-16T03:30:39.061Z,91.3
2022-11-16T03:33:13.271Z,91.1
2022-11-16T03:34:29.391Z,91.2
2022-11-16T03:35:46.496Z,91.1
2022-11-16T03:37:03.601Z,91.2
2022-11-16T03:38:20.705Z,91.1
2022-11-16T03:39:37.810Z,91.1
2022-11-16T03:40:54.915Z,91.2
2022-11-16T03:42:12.019Z,91.2
2022-11-16T03:43:28.145Z,91.3
2022-11-16T03:44:44.266Z,91.2
2022-11-16T03:46:00.392Z,91.3
2022-11-16T03:47:16.513Z,91.1
2022-11-16T03:48:33.618Z,90.8
2022-11-16T03:49:50.723Z,90.8
2022-11-16T03:51:07.827Z,90.7
2022-11-16T03:52:24.933Z,90.7
2022-11-16T03:53:42.038Z,90.6
2022-11-16T03:54:59.143Z,90.5
2022-11-16T03:56:16.247Z,90.5
2022-11-16T03:57:33.352Z,90.5
2022-11-16T03:58:50.457Z,90.4
2022-11-16T04:00:07.562Z,90.5
2022-11-16T04:01:24.667Z,90.3
2022-11-16T04:02:41.771Z,90.4
2022-11-16T04:03:57.892Z,90.1
2022-11-16T04:05:14.997Z,90.2
2022-11-16T04:06:32.102Z,90.2
2022-11-16T04:07:49.206Z,90.2
2022-11-16T04:09:06.311Z,90.4
2022-11-16T04:10:23.416Z,90.5
2022-11-16T04:11:40.521Z,90.5
2022-11-16T04:12:56.647Z,90.3
2022-11-16T04:14:12.768Z,90.3
2022-11-16T04:15:28.894Z,90.2
2022-11-16T04:16:45.015Z,90.2
2022-11-16T04:18:02.119Z,90.3
2022-11-16T04:19:19.224Z,90.2
2022-11-16T04:20:36.329Z,90.3
2022-11-16T04:21:53.433Z,90.4
2022-11-16T04:23:10.538Z,90.5
2022-11-16T04:24:27.643Z,90.7
2022-11-16T04:25:44.748Z,90.7
2022-11-16T04:27:01.852Z,90.7
2022-11-16T04:28:18.957Z,90.8
2022-11-16T04:29:36.062Z,90.8
2022-11-16T04:30:53.166Z,90.6
2022-11-16T04:32:10.271Z,90.6
2022-11-16T04:33:26.392Z,90.6
2022-11-16T04:34:43.497Z,90.5
2022-11-16T04:36:00.601Z,90.6
2022-11-16T04:37:17.706Z,90.5
2022-11-16T04:38:34.811Z,90.6
2022-11-16T04:39:51.916Z,90.5
2022-11-16T04:41:09.020Z,90.5
2022-11-16T04:42:25.146Z,90.5
2022-11-16T04:43:41.267Z,90.5
2022-11-16T04:44:58.372Z,90.4
2022-11-16T04:46:15.477Z,90.5
2022-11-16T04:47:31.613Z,90.3
2022-11-16T04:48:47.733Z,90.2
2022-11-16T04:50:04.838Z,90.2
2022-11-16T04:51:21.943Z,90.3
2022-11-16T04:52:39.048Z,90.3
2022-11-16T04:53:56.152Z,90.4
2022-11-16T04:55:13.256Z,90.3
2022-11-16T04:56:30.361Z,90
2022-11-16T04:57:47.466Z,90
2022-11-16T04:59:04.570Z,90
2022-11-16T05:00:21.674Z,90
2022-11-16T05:01:38.779Z,90
2022-11-16T05:02:55.884Z,90
2022-11-16T05:04:12.988Z,89.8
2022-11-16T05:05:29.109Z,89.6
2022-11-16T05:06:46.214Z,89.4
2022-11-16T05:08:03.319Z,89.3
2022-11-16T05:09:20.424Z,89.6
2022-11-16T05:10:37.528Z,89.8
2022-11-16T05:11:54.632Z,89.8
2022-11-16T05:13:11.737Z,89.8
2022-11-16T05:14:27.863Z,89.8
2022-11-16T05:15:43.983Z,89.8
2022-11-16T05:17:00.109Z,89.6
2022-11-16T05:18:16.230Z,89.4
2022-11-16T05:19:33.335Z,89.5
2022-11-16T05:20:50.440Z,89.8
2022-11-16T05:22:07.544Z,89.6
2022-11-16T05:23:24.649Z,89.6
2022-11-16T05:24:41.754Z,89.3
2022-11-16T05:25:58.858Z,89.3
2022-11-16T05:27:15.963Z,89.3
2022-11-16T05:28:33.067Z,89.4
2022-11-16T05:29:50.172Z,89.4
2022-11-16T05:31:07.277Z,89.2
2022-11-16T05:32:24.381Z,89.4
2022-11-16T05:33:41.486Z,89.3
2022-11-16T05:34:57.607Z,89.2
2022-11-16T05:36:14.711Z,89.1
2022-11-16T05:37:31.816Z,89
2022-11-16T05:38:48.920Z,89.2
2022-11-16T05:40:06.025Z,89.1
2022-11-16T05:41:23.130Z,89.2
2022-11-16T05:42:40.235Z,89.1
2022-11-16T05:43:56.361Z,89.1
2022-11-16T05:45:12.481Z,89
2022-11-16T05:46:28.607Z,89.1
2022-11-16T05:47:44.728Z,89.3
2022-11-16T05:49:01.833Z,89.1
2022-11-16T05:50:18.938Z,89.1
2022-11-16T05:51:36.042Z,89.3
2022-11-16T05:52:53.147Z,89.2
2022-11-16T05:54:10.251Z,89.4
2022-11-16T05:55:27.356Z,89.4
2022-11-16T05:56:44.461Z,89.5
2022-11-16T05:58:01.566Z,89.6
2022-11-16T05:59:18.670Z,89.5
2022-11-16T06:00:35.776Z,89.6
2022-11-16T06:01:52.880Z,89.5
2022-11-16T06:03:09.985Z,89.4
2022-11-16T06:09:34.525Z,89.8
2022-11-16T06:10:51.631Z,89.8
2022-11-16T06:12:08.735Z,89.8
2022-11-16T06:13:24.861Z,90
2022-11-16T06:14:40.982Z,90
2022-11-16T06:19:49.400Z,89.5
2022-11-16T06:23:40.715Z,88.8
2022-11-16T06:26:14.924Z,88.8
2022-11-16T06:27:32.029Z,88.9
2022-11-16T06:30:06.238Z,89.1
2022-11-16T06:32:39.464Z,89.2
2022-11-16T06:33:56.568Z,88.7
2022-11-16T06:35:13.673Z,88.8
2022-11-16T06:36:30.777Z,88.5
2022-11-16T06:37:47.882Z,88.8
2022-11-16T06:39:04.986Z,88.5
2022-11-16T06:40:21.112Z,88.5
2022-11-16T06:41:37.233Z,88.5
2022-11-16T06:42:54.338Z,88.3
2022-11-16T06:44:10.464Z,88.5
2022-11-16T06:45:26.584Z,88.4
2022-11-16T06:46:43.689Z,88.3
2022-11-16T06:47:59.815Z,88.2
2022-11-16T06:49:15.935Z,88.2
2022-11-16T06:50:33.040Z,87.8
2022-11-16T06:51:50.145Z,88
2022-11-16T06:53:07.249Z,88
2022-11-16T06:54:24.354Z,87.9
2022-11-16T06:55:41.459Z,88
2022-11-16T06:56:58.563Z,87.8
2022-11-16T06:58:15.668Z,87.9
2022-11-16T06:59:32.772Z,87.8
2022-11-16T07:00:49.877Z,87.8
2022-11-16T07:02:06.982Z,88.1
2022-11-16T07:03:24.086Z,88.2
2022-11-16T07:04:41.191Z,88.2
2022-11-16T07:05:57.312Z,88.2
2022-11-16T07:07:14.416Z,88.4
2022-11-16T07:08:31.521Z,88.5
2022-11-16T07:09:48.626Z,88.5
2022-11-16T07:11:05.730Z,88.5
2022-11-16T07:12:22.835Z,88.7
2022-11-16T07:13:39.939Z,88.8
2022-11-16T07:14:56.065Z,88.8
2022-11-16T07:16:12.186Z,88.4
2022-11-16T07:17:29.290Z,88.2
2022-11-16T07:18:45.416Z,88.1
2022-11-16T07:20:01.537Z,88.1
2022-11-16T07:21:18.641Z,88.1
2022-11-16T07:22:35.746Z,88
2022-11-16T07:23:52.851Z,87.8
2022-11-16T07:25:09.955Z,87.6
2022-11-16T07:26:27.060Z,87.6
2022-11-16T07:27:44.165Z,87.8
2022-11-16T07:29:01.269Z,87.8
2022-11-16T07:30:18.374Z,87.8
2022-11-16T07:31:35.478Z,87.7
2022-11-16T07:32:52.583Z,87.7
2022-11-16T07:34:09.687Z,87.3
2022-11-16T07:35:26.792Z,87.2
2022-11-16T07:36:42.912Z,86.8
2022-11-16T07:38:00.017Z,86.5
2022-11-16T07:39:17.122Z,86.3
2022-11-16T07:40:34.226Z,86.2
2022-11-16T07:41:51.331Z,86.5
2022-11-16T07:43:08.435Z,86.5
2022-11-16T07:44:25.540Z,86.3
2022-11-16T07:45:41.665Z,86
2022-11-16T07:46:57.786Z,85.8
2022-11-16T07:48:14.890Z,85.3
2022-11-16T07:49:31.016Z,84.9
2022-11-16T07:50:47.137Z,84.4
2022-11-16T07:52:04.241Z,84.2
2022-11-16T07:53:21.346Z,83.5
2022-11-16T07:54:38.450Z,83
2022-11-16T07:55:55.555Z,82.4
2022-11-16T07:57:12.659Z,81.7
2022-11-16T07:58:29.764Z,81.7
2022-11-16T07:59:46.868Z,80.8
2022-11-16T08:01:03.972Z,80.2
2022-11-16T08:02:21.077Z,79.6
2022-11-16T08:03:38.182Z,79.6
2022-11-16T08:04:55.287Z,79
2022-11-16T08:06:12.392Z,79.2
2022-11-16T08:07:28.513Z,78.1
2022-11-16T08:08:45.617Z,77.5
2022-11-16T08:10:02.722Z,77.7
2022-11-16T08:11:19.827Z,77.5
2022-11-16T08:12:36.931Z,77.5
2022-11-16T08:13:54.036Z,77.4
2022-11-16T08:15:11.141Z,77.4
2022-11-16T08:16:27.267Z,77.2
2022-11-16T08:17:43.388Z,77.2
2022-11-16T08:19:00.493Z,76.8
2022-11-16T08:20:16.619Z,76.7
2022-11-16T08:21:32.740Z,76.3
2022-11-16T08:22:49.844Z,75.6
2022-11-16T08:24:06.949Z,75.8
2022-11-16T08:25:24.054Z,75.4
2022-11-16T08:26:41.159Z,75.4
2022-11-16T08:27:58.264Z,75.1
2022-11-16T08:29:15.368Z,75.5
2022-11-16T08:30:32.473Z,75.8
2022-11-16T08:31:49.578Z,75.6
2022-11-16T08:33:06.682Z,74.8
2022-11-16T08:34:23.787Z,75
2022-11-16T08:35:40.891Z,74.8
2022-11-16T08:36:57.995Z,74.5
2022-11-16T08:38:14.116Z,74.5
2022-11-16T08:39:31.220Z,73.8
2022-11-16T08:40:48.325Z,74
2022-11-16T08:42:05.429Z,73.6
2022-11-16T08:43:22.534Z,73
2022-11-16T08:44:39.639Z,73.6
2022-11-16T08:45:56.743Z,72.5
2022-11-16T08:47:12.870Z,71.4
2022-11-16T08:48:28.990Z,71.6
2022-11-16T08:49:46.095Z,71.9
2022-11-16T08:51:03.200Z,70.8
2022-11-16T08:52:19.326Z,70.4
2022-11-16T08:53:35.447Z,70.5
2022-11-16T08:54:52.551Z,71.3
2022-11-16T08:56:09.656Z,69.5
2022-11-16T08:57:26.761Z,69.4
2022-11-16T08:58:43.866Z,70
2022-11-16T09:00:00.970Z,70
2022-11-16T09:01:18.074Z,69.9
2022-11-16T09:02:35.178Z,69.6
2022-11-16T09:03:52.283Z,70.3
2022-11-16T09:05:08.403Z,71
2022-11-16T09:06:25.507Z,70.2
2022-11-16T09:07:42.611Z,70.3
2022-11-16T09:08:59.716Z,70
2022-11-16T09:10:16.820Z,70.3
2022-11-16T09:11:33.925Z,69.9
2022-11-16T09:12:51.029Z,69.3
2022-11-16T09:14:08.133Z,68.9
2022-11-16T09:15:25.239Z,68.9
2022-11-16T09:16:42.343Z,69.5
2022-11-16T09:17:59.448Z,69.1
2022-11-16T09:19:15.573Z,68.9
2022-11-16T09:20:31.694Z,68.3
2022-11-16T09:21:47.820Z,68.6
2022-11-16T09:23:03.940Z,68.7
2022-11-16T09:24:21.045Z,68.6
2022-11-16T09:25:38.150Z,68
2022-11-16T09:26:55.254Z,67.7
2022-11-16T09:28:12.358Z,69.1
2022-11-16T09:29:29.463Z,68
2022-11-16T09:30:46.567Z,67.3
2022-11-16T09:32:03.672Z,66.8
2022-11-16T09:33:20.776Z,68.2
2022-11-16T09:34:37.881Z,68.2
2022-11-16T09:35:54.985Z,67.7
2022-11-16T09:37:12.090Z,66.8
2022-11-16T09:38:29.194Z,66.9
2022-11-16T09:39:45.315Z,66.4
2022-11-16T09:41:02.419Z,66.9
2022-11-16T09:42:19.524Z,66.6
2022-11-16T09:43:36.628Z,66.3
2022-11-16T09:44:53.732Z,66.2
2022-11-16T09:46:10.837Z,66.1
2022-11-16T09:47:27.942Z,65.9
2022-11-16T09:48:44.067Z,65
2022-11-16T09:50:00.188Z,65
2022-11-16T09:51:17.292Z,64.4
2022-11-16T09:52:34.397Z,63.9
2022-11-16T09:53:50.523Z,63.1
2022-11-16T09:55:06.643Z,62.9
2022-11-16T09:56:23.748Z,63.6
2022-11-16T09:57:40.852Z,63.5
2022-11-16T09:58:57.957Z,63.4
2022-11-16T10:00:15.061Z,63.5
2022-11-16T10:01:32.165Z,63.7
2022-11-16T10:02:49.270Z,63
2022-11-16T10:04:06.375Z,63.9
2022-11-16T10:05:23.479Z,64
2022-11-16T10:06:40.584Z,63.2
2022-11-16T10:07:57.688Z,64.2
2022-11-16T10:09:14.793Z,63.6
2022-11-16T10:10:31.897Z,63.1
2022-11-16T10:11:48.018Z,63.1
2022-11-16T10:13:05.122Z,63.2
2022-11-16T10:14:22.227Z,63.3
2022-11-16T10:15:39.331Z,63.1
2022-11-16T10:16:56.436Z,64.1
2022-11-16T10:18:13.540Z,64.3
2022-11-16T10:19:30.645Z,63.9
2022-11-16T10:20:46.771Z,64.2
2022-11-16T10:22:02.891Z,63.3
2022-11-16T10:23:19.017Z,63.1
2022-11-16T10:24:35.138Z,63.6
2022-11-16T10:25:52.242Z,63.1
2022-11-16T10:27:09.347Z,63.6
2022-11-16T10:28:26.451Z,62.9
2022-11-16T10:29:43.556Z,64
2022-11-16T10:31:00.660Z,63.7
2022-11-16T10:32:17.765Z,63
2022-11-16T10:33:34.869Z,63.6
2022-11-16T10:34:51.974Z,63.8
2022-11-16T10:36:09.078Z,63.4
2022-11-16T10:37:26.182Z,63.1
2022-11-16T10:38:43.287Z,63.4
2022-11-16T10:40:00.392Z,64
2022-11-16T10:41:16.512Z,63.7
2022-11-16T10:42:33.618Z,63.6
2022-11-16T10:43:50.722Z,64.1
2022-11-16T10:45:07.827Z,64.6
2022-11-16T10:46:24.931Z,64.3
2022-11-16T10:47:42.037Z,64.9
2022-11-16T10:48:59.141Z,64.5
2022-11-16T10:50:15.267Z,63.5
2022-11-16T10:51:31.387Z,63.7
2022-11-16T10:52:48.492Z,64
2022-11-16T10:54:05.596Z,64.2
2022-11-16T10:55:21.722Z,64.3
2022-11-16T10:56:37.843Z,63.7
2022-11-16T10:57:54.947Z,63.8
2022-11-16T10:59:12.051Z,64.5
2022-11-16T11:00:29.155Z,64.7
2022-11-16T11:01:46.260Z,63.5
2022-11-16T11:03:03.364Z,63.8
2022-11-16T11:04:20.468Z,64.1
2022-11-16T11:05:37.572Z,63.6
2022-11-16T11:06:54.677Z,64.3
2022-11-16T11:08:11.781Z,64.7
2022-11-16T11:09:28.886Z,64.1
2022-11-16T11:10:45.990Z,64.3
2022-11-16T11:12:03.094Z,64.9
2022-11-16T11:13:19.214Z,65.2
2022-11-16T11:14:36.320Z,63.6
2022-11-16T11:15:53.424Z,64.4
2022-11-16T11:17:10.528Z,64.2
2022-11-16T11:18:27.633Z,64
2022-11-16T11:19:44.737Z,64.3
2022-11-16T11:21:01.841Z,65.1
2022-11-16T11:22:17.967Z,64.8
2022-11-16T11:23:34.087Z,63.8
2022-11-16T11:24:51.191Z,63.6
2022-11-16T11:26:07.317Z,63.5
2022-11-16T11:27:23.437Z,63.1
2022-11-16T11:28:40.541Z,63.4
2022-11-16T11:29:57.645Z,63.6
2022-11-16T11:31:14.750Z,64.1
2022-11-16T11:32:31.854Z,63.9
2022-11-16T11:33:48.959Z,63.3
2022-11-16T11:35:06.063Z,63.4
2022-11-16T11:36:23.168Z,63.2
2022-11-16T11:37:40.272Z,63.6
2022-11-16T11:38:57.377Z,63.7
2022-11-16T11:40:14.481Z,64
2022-11-16T11:41:31.585Z,63.6
2022-11-16T11:42:48.690Z,63.4
2022-11-16T11:44:04.810Z,62.9
2022-11-16T11:45:21.914Z,63
2022-11-16T11:46:39.019Z,62.4
2022-11-16T11:47:56.123Z,62.2
2022-11-16T11:49:13.228Z,62.7
2022-11-16T11:50:30.332Z,62.8
2022-11-16T11:51:47.436Z,63.1
2022-11-16T11:53:03.562Z,63.1
2022-11-16T11:54:19.682Z,62.9
2022-11-16T11:55:35.807Z,62
2022-11-16T11:56:51.928Z,61.7
2022-11-16T11:58:09.032Z,62
2022-11-16T11:59:26.136Z,62.9
2022-11-16T12:00:43.240Z,63.6
2022-11-16T12:02:00.345Z,63.5
2022-11-16T12:03:17.447Z,63
2022-11-16T12:04:34.551Z,62.3
2022-11-16T12:05:51.655Z,61.9
2022-11-16T12:07:08.760Z,62
2022-11-16T12:08:25.864Z,62.9
2022-11-16T12:09:42.968Z,63.1
2022-11-16T12:11:00.073Z,63.1
2022-11-16T12:12:17.177Z,63.3
2022-11-16T12:13:33.297Z,62.9
2022-11-16T12:14:50.402Z,62.5
2022-11-16T12:16:07.506Z,62.6
2022-11-16T12:17:24.611Z,63.2
2022-11-16T12:18:41.715Z,63.7
2022-11-16T12:19:58.819Z,63.3
2022-11-16T12:21:15.923Z,63.8
2022-11-16T12:22:32.049Z,63.8
2022-11-16T12:23:48.169Z,63.2
2022-11-16T12:25:05.274Z,62.4
2022-11-16T12:26:22.378Z,62.5
2022-11-16T12:27:38.504Z,62.9
2022-11-16T12:28:54.625Z,62.7
2022-11-16T12:30:11.729Z,62.1
2022-11-16T12:31:28.834Z,62.5
2022-11-16T12:32:45.938Z,62.1
2022-11-16T12:34:03.042Z,61.6
2022-11-16T12:35:20.147Z,61.8
2022-11-16T12:36:37.251Z,61.8
2022-11-16T12:37:54.356Z,60.9
2022-11-16T12:39:11.460Z,60.8
2022-11-16T12:40:28.564Z,61.2
2022-11-16T12:41:45.668Z,61.2
2022-11-16T12:43:02.773Z,61
2022-11-16T12:44:19.877Z,61.7
2022-11-16T12:45:35.997Z,61.2
2022-11-16T12:46:53.102Z,60.9
2022-11-16T12:48:10.206Z,60.9
2022-11-16T12:49:27.310Z,60.8
2022-11-16T12:50:44.415Z,60.9
2022-11-16T12:52:01.519Z,61
2022-11-16T12:53:18.623Z,60.7
2022-11-16T12:54:34.749Z,61.2
2022-11-16T12:55:50.870Z,61.4
2022-11-16T12:57:06.996Z,61.2
2022-11-16T12:58:23.116Z,61.6
2022-11-16T12:59:40.220Z,61.7
2022-11-16T13:00:57.325Z,62
2022-11-16T13:02:14.429Z,62.5
2022-11-16T13:03:31.533Z,62.5
2022-11-16T13:04:48.638Z,62.8
2022-11-16T13:06:05.742Z,62.8
2022-11-16T13:07:22.846Z,62.5
2022-11-16T13:08:39.951Z,62.4
2022-11-16T13:09:57.055Z,62.9
2022-11-16T13:11:14.159Z,63.1
2022-11-16T13:12:31.263Z,63.1
2022-11-16T13:13:48.367Z,63.2
2022-11-16T13:15:04.488Z,63.5
2022-11-16T13:16:21.592Z,63.4
2022-11-16T13:17:38.696Z,63.4
2022-11-16T13:18:55.800Z,63.3
2022-11-16T13:20:12.904Z,63.3
2022-11-16T13:21:30.009Z,63.3
2022-11-16T13:22:46.129Z,63.9
2022-11-16T13:24:02.254Z,63.3
2022-11-16T13:25:18.375Z,63.1
2022-11-16T13:26:34.500Z,63
2022-11-16T13:27:50.621Z,63.6
2022-11-16T13:29:07.725Z,63.6
2022-11-16T13:30:24.829Z,63.9
2022-11-16T13:31:41.933Z,64.5
2022-11-16T13:32:59.037Z,64.1
2022-11-16T13:34:16.141Z,64.1
2022-11-16T13:35:33.245Z,64.3
2022-11-16T13:36:50.349Z,64.3
2022-11-16T13:38:07.453Z,64.2
2022-11-16T13:39:24.557Z,64.2
2022-11-16T13:40:41.661Z,64.7
2022-11-16T13:41:58.765Z,64.4
2022-11-16T13:43:15.870Z,64.7
2022-11-16T13:44:31.990Z,64.7
2022-11-16T13:45:49.095Z,64.7
2022-11-16T13:47:06.200Z,65.2
2022-11-16T13:48:23.304Z,65.6
2022-11-16T13:49:40.409Z,65.8
2022-11-16T13:50:57.513Z,65.6
2022-11-16T13:52:14.618Z,66
2022-11-16T13:53:30.744Z,66
2022-11-16T13:54:46.865Z,65.8
2022-11-16T13:56:03.969Z,66.2
2022-11-16T13:57:21.074Z,66.5
2022-11-16T13:58:38.179Z,66.1
2022-11-16T13:59:55.284Z,66.1
2022-11-16T14:01:11.410Z,66.6
2022-11-16T14:02:27.530Z,66.5
2022-11-16T14:03:44.635Z,66.5
2022-11-16T14:05:01.740Z,66.6
2022-11-16T14:06:18.845Z,66.6
2022-11-16T14:07:35.949Z,67.1
2022-11-16T14:08:53.054Z,66.5
2022-11-16T14:10:10.159Z,66.6
2022-11-16T14:11:27.263Z,66.5
2022-11-16T14:12:44.368Z,66.8
2022-11-16T14:14:01.473Z,67
2022-11-16T14:15:18.578Z,67.2
2022-11-16T14:16:35.682Z,67.4
2022-11-16T14:17:52.787Z,67.7
2022-11-16T14:19:08.907Z,68.1
2022-11-16T14:20:26.012Z,68.2
2022-11-16T14:21:43.117Z,68.2
2022-11-16T14:23:00.222Z,68.4
2022-11-16T14:24:17.326Z,68.3
2022-11-16T14:25:34.431Z,68.2
2022-11-16T14:26:51.536Z,68.6
2022-11-16T14:28:07.662Z,68.7
2022-11-16T14:29:23.782Z,68.9
2022-11-16T14:30:39.909Z,68.9
2022-11-16T14:31:56.029Z,68.9
2022-11-16T14:33:13.134Z,68.7
2022-11-16T14:34:30.239Z,68.8
2022-11-16T14:35:47.343Z,68.8
2022-11-16T14:37:04.448Z,68.8
2022-11-16T14:38:21.553Z,68.8
2022-11-16T14:39:38.657Z,69.1
2022-11-16T14:40:55.762Z,69
2022-11-16T14:42:12.867Z,69
2022-11-16T14:43:29.971Z,69.2
2022-11-16T14:44:47.076Z,69.5
2022-11-16T14:46:04.180Z,69.7
2022-11-16T14:47:21.285Z,69.8
2022-11-16T14:48:37.406Z,69.4
2022-11-16T14:49:54.511Z,69.8
2022-11-16T14:51:11.616Z,69.9
2022-11-16T14:52:28.720Z,69.9
2022-11-16T14:53:45.825Z,70.1
2022-11-16T14:55:02.930Z,69.9
2022-11-16T14:56:20.034Z,69.9
2022-11-16T14:57:36.160Z,69.4
2022-11-16T14:58:52.281Z,69.4
2022-11-16T15:00:08.407Z,69.6
2022-11-16T15:01:24.528Z,69.6
2022-11-16T15:02:41.632Z,69.8
2022-11-16T15:03:58.737Z,69.9
2022-11-16T15:05:15.842Z,69.4
2022-11-16T15:06:32.947Z,69.5
2022-11-16T15:07:50.051Z,69.4
2022-11-16T15:09:07.156Z,69.7
2022-11-16T15:10:24.260Z,69.7
2022-11-16T15:11:41.365Z,69.8
2022-11-16T15:12:58.469Z,70
2022-11-16T15:14:15.574Z,69.9
2022-11-16T15:15:32.679Z,69.9
2022-11-16T15:16:49.783Z,70.5
2022-11-16T15:18:05.904Z,70.7
2022-11-16T15:19:23.009Z,70.5
2022-11-16T15:20:40.113Z,70.7
2022-11-16T15:21:57.218Z,70.7
2022-11-16T15:23:14.322Z,70.7
2022-11-16T15:24:31.426Z,70.9
2022-11-16T15:25:48.531Z,70.9
2022-11-16T15:27:04.657Z,71
2022-11-16T15:28:20.777Z,71.6
2022-11-16T15:29:37.882Z,71.3
2022-11-16T15:30:54.008Z,71.5
2022-11-16T15:32:10.128Z,71.4
2022-11-16T15:33:27.233Z,71.3
2022-11-16T15:34:44.337Z,71.5
2022-11-16T15:36:01.442Z,71.3
2022-11-16T15:37:18.546Z,71.2
2022-11-16T15:38:35.651Z,71.2
2022-11-16T15:39:52.756Z,71.3
2022-11-16T15:41:09.861Z,71.4
2022-11-16T15:42:26.966Z,71.5
2022-11-16T15:43:44.070Z,71.7
2022-11-16T15:45:01.175Z,71.7
2022-11-16T15:46:18.279Z,71.9
2022-11-16T15:47:35.384Z,71.9
2022-11-16T15:48:51.504Z,72.1
2022-11-16T15:50:08.609Z,72.1
2022-11-16T15:51:25.713Z,72.2
2022-11-16T15:52:42.818Z,72.3
2022-11-16T15:53:59.922Z,72.4
2022-11-16T15:55:17.027Z,72.7
2022-11-16T15:56:34.131Z,73
2022-11-16T15:57:50.257Z,73.3
2022-11-16T15:59:07.361Z,73.7
2022-11-16T16:00:23.482Z,73.7
2022-11-16T16:01:40.586Z,73.7
2022-11-16T16:02:57.691Z,73.8
2022-11-16T16:04:13.817Z,74
2022-11-16T16:05:29.937Z,74
2022-11-16T16:06:47.042Z,74.1
2022-11-16T16:08:04.146Z,74.2
2022-11-16T16:09:21.251Z,74.6
2022-11-16T16:10:38.355Z,74.9
2022-11-16T16:11:55.460Z,75.2
2022-11-16T16:13:12.562Z,75.6
2022-11-16T16:14:29.666Z,75.9
2022-11-16T16:15:46.771Z,76.7
2022-11-16T16:17:03.875Z,77.3
2022-11-16T16:18:20.980Z,77.8
2022-11-16T16:19:38.085Z,78.4
2022-11-16T16:20:55.189Z,78.7
2022-11-16T16:22:11.310Z,79
2022-11-16T16:23:28.415Z,79.3
2022-11-16T16:24:45.517Z,79.4
2022-11-16T16:26:02.622Z,79.5
2022-11-16T16:27:19.726Z,79.8
2022-11-16T16:28:36.831Z,80
2022-11-16T16:29:53.936Z,80.1
2022-11-16T16:31:10.062Z,80.1
2022-11-16T16:32:26.182Z,80.1
2022-11-16T16:33:42.308Z,80.3
2022-11-16T16:34:58.429Z,80.3
2022-11-16T16:36:15.534Z,80.4
2022-11-16T16:37:32.638Z,80.5
2022-11-16T16:38:49.743Z,80.6
2022-11-16T16:40:06.848Z,80.5
2022-11-16T16:41:23.950Z,80.5
2022-11-16T16:42:41.055Z,80.5
2022-11-16T16:43:58.159Z,80.5
2022-11-16T16:45:15.264Z,80.3
2022-11-16T16:46:32.369Z,80.2
2022-11-16T16:47:49.473Z,80.3
2022-11-16T16:49:06.578Z,80.3
2022-11-16T16:50:23.682Z,80.3
2022-11-16T16:51:39.803Z,80.3
2022-11-16T16:52:56.908Z,80.3
2022-11-16T16:54:14.012Z,80.2
2022-11-16T16:55:31.117Z,80.2
2022-11-16T16:56:48.222Z,80.3
2022-11-16T16:58:05.327Z,80.3
2022-11-16T16:59:22.432Z,80.5
2022-11-16T17:00:38.558Z,80.5
2022-11-16T17:01:54.678Z,80.5
2022-11-16T17:03:10.805Z,80.5
2022-11-16T17:04:26.925Z,80.4
2022-11-16T17:05:44.030Z,80.5
2022-11-16T17:07:01.134Z,80.8
2022-11-16T17:08:18.239Z,80.8
2022-11-16T17:09:35.344Z,80.9
2022-11-16T17:10:52.448Z,81
2022-11-16T17:12:09.553Z,80.9
2022-11-16T17:13:26.658Z,80.9
2022-11-16T17:14:43.763Z,81.2
2022-11-16T17:16:00.867Z,81.4
2022-11-16T17:17:17.972Z,81.5
2022-11-16T17:18:35.077Z,81.5
2022-11-16T17:19:52.181Z,81.5
2022-11-16T17:21:08.302Z,81.6
2022-11-16T17:22:25.407Z,81.7
2022-11-16T17:23:42.512Z,82
2022-11-16T17:24:59.616Z,82.1
2022-11-16T17:26:16.721Z,82.3